Time;durP1;ratioP1;P1;durP2;ratioP2;P2;SDS_P1;SDS_P2;PMS_P1;PMS_P2;Temp;Humidity;BMP_temperature;BMP_pressure;BME280_temperature;BME280_humidity;BME280_pressure;Samples;Min_cycle;Max_cycle;Signal;HPM_P1;HPM_P2
2021/11/06 00:01:04;;;;;;;;;39.00;32.75;;;;;;;;5053259;28;45472;-72
2021/11/06 00:03:29;;;;;;;;;27.50;25.50;;;;;;;;5052857;28;45428;-72
2021/11/06 00:05:54;;;;;;;;;47.00;36.00;;;;;;;;5052719;28;45320;-72
2021/11/06 00:08:19;;;;;;;;;37.75;34.75;;;;;;;;5052388;28;46692;-72
2021/11/06 00:10:45;;;;;;;;;39.50;34.50;;;;;;;;5035710;28;45490;-71
2021/11/06 00:13:10;;;;;;;;;46.00;35.75;;;;;;;;5054404;28;45374;-72
2021/11/06 00:15:36;;;;;;;;;43.50;36.50;;;;;;;;5052637;28;45530;-71
2021/11/06 00:18:01;;;;;;;;;43.75;36.50;;;;;;;;5052336;28;45933;-72
2021/11/06 00:20:27;;;;;;;;;46.50;38.00;;;;;;;;5052735;28;45615;-72
2021/11/06 00:22:52;;;;;;;;;45.50;38.00;;;;;;;;5053176;28;45813;-72
2021/11/06 00:25:18;;;;;;;;;41.75;36.00;;;;;;;;5055193;28;45419;-73
2021/11/06 00:27:44;;;;;;;;;45.50;38.50;;;;;;;;5052734;28;45991;-71
2021/11/06 00:30:11;;;;;;;;;47.75;38.75;;;;;;;;5050942;28;45403;-73
2021/11/06 00:32:36;;;;;;;;;44.25;36.50;;;;;;;;5033233;28;45324;-73
2021/11/06 00:35:02;;;;;;;;;42.50;35.50;;;;;;;;5052351;28;45618;-72
2021/11/06 00:37:27;;;;;;;;;46.50;37.75;;;;;;;;5054225;28;45415;-73
2021/11/06 00:39:53;;;;;;;;;42.50;36.25;;;;;;;;5052614;28;45480;-72
2021/11/06 00:42:18;;;;;;;;;40.00;35.25;;;;;;;;5052927;28;45475;-73
2021/11/06 00:44:43;;;;;;;;;40.00;36.25;;;;;;;;5056276;28;45276;-73
2021/11/06 00:47:10;;;;;;;;;36.00;34.50;;;;;;;;5052714;28;47057;-72
2021/11/06 00:49:36;;;;;;;;;45.25;37.00;;;;;;;;5057219;28;45416;-72
2021/11/06 00:52:01;;;;;;;;;45.50;35.50;;;;;;;;5056356;28;45731;-72
2021/11/06 00:54:26;;;;;;;;;43.50;38.00;;;;;;;;5055542;28;45474;-70
2021/11/06 00:56:52;;;;;;;;;43.25;37.25;;;;;;;;5055584;28;45600;-71
2021/11/06 00:59:17;;;;;;;;;44.50;37.00;;;;;;;;5056267;28;45348;-70
2021/11/06 01:01:42;;;;;;;;;40.00;34.25;;;;;;;;5057329;28;45348;-72
2021/11/06 01:04:07;;;;;;;;;40.00;35.75;;;;;;;;5056241;28;45454;-72
2021/11/06 01:06:33;;;;;;;;;40.75;36.25;;;;;;;;5055598;28;45439;-71
2021/11/06 01:08:58;;;;;;;;;39.50;35.25;;;;;;;;5054226;28;45439;-72
2021/11/06 01:11:23;;;;;;;;;37.00;34.50;;;;;;;;5054302;28;45448;-71
2021/11/06 01:13:49;;;;;;;;;42.00;35.50;;;;;;;;5055945;28;45348;-73
2021/11/06 01:16:14;;;;;;;;;40.75;36.75;;;;;;;;5057109;28;46011;-73
2021/11/06 01:18:40;;;;;;;;;36.75;34.75;;;;;;;;5055219;28;45492;-73
2021/11/06 01:21:06;;;;;;;;;36.50;33.00;;;;;;;;5055257;28;45478;-73
2021/11/06 01:23:31;;;;;;;;;35.75;33.25;;;;;;;;5055363;28;45495;-73
2021/11/06 01:25:56;;;;;;;;;40.75;35.75;;;;;;;;5055279;28;46107;-73
2021/11/06 01:28:21;;;;;;;;;38.25;36.00;;;;;;;;5057629;28;45486;-72
2021/11/06 01:30:47;;;;;;;;;38.00;32.00;;;;;;;;5055400;28;45516;-72
2021/11/06 01:33:12;;;;;;;;;38.00;34.25;;;;;;;;5055238;28;45417;-70
2021/11/06 01:35:37;;;;;;;;;40.00;34.25;;;;;;;;5055319;28;46097;-72
2021/11/06 01:38:03;;;;;;;;;34.25;32.50;;;;;;;;5055620;28;45332;-72
2021/11/06 01:40:28;;;;;;;;;34.75;32.50;;;;;;;;5057603;28;45291;-72
2021/11/06 01:42:53;;;;;;;;;46.00;36.50;;;;;;;;5055129;28;45338;-71
2021/11/06 01:45:19;;;;;;;;;36.25;32.00;;;;;;;;5055063;28;46591;-72
2021/11/06 01:47:45;;;;;;;;;34.75;31.50;;;;;;;;5053217;28;45469;-71
2021/11/06 01:50:11;;;;;;;;;35.00;31.75;;;;;;;;5053994;28;45502;-70
2021/11/06 01:52:36;;;;;;;;;39.75;33.75;;;;;;;;5038827;28;45497;-72
2021/11/06 01:55:02;;;;;;;;;33.00;30.00;;;;;;;;5055583;28;45482;-71
2021/11/06 01:57:27;;;;;;;;;29.75;29.25;;;;;;;;5055135;28;45294;-72
2021/11/06 01:59:53;;;;;;;;;34.00;29.25;;;;;;;;5055368;28;45295;-71
2021/11/06 02:02:18;;;;;;;;;31.00;29.75;;;;;;;;5054952;28;45484;-71
2021/11/06 02:04:45;;;;;;;;;31.50;29.00;;;;;;;;5037545;28;47159;-71
2021/11/06 02:07:10;;;;;;;;;35.75;32.50;;;;;;;;5056400;28;45387;-71
2021/11/06 02:09:35;;;;;;;;;37.75;32.25;;;;;;;;5054016;28;45782;-71
2021/11/06 02:12:00;;;;;;;;;34.75;31.00;;;;;;;;5054861;28;45498;-70
2021/11/06 02:14:26;;;;;;;;;25.75;25.25;;;;;;;;5054495;28;47125;-71
2021/11/06 02:16:52;;;;;;;;;31.50;30.25;;;;;;;;5054678;28;45513;-71
2021/11/06 02:19:18;;;;;;;;;34.75;31.00;;;;;;;;5057283;28;45249;-70
2021/11/06 02:21:43;;;;;;;;;31.25;30.75;;;;;;;;5054629;28;45320;-71
2021/11/06 02:24:08;;;;;;;;;36.75;29.25;;;;;;;;5055444;28;46955;-71
2021/11/06 02:26:34;;;;;;;;;34.25;32.00;;;;;;;;5053489;28;45448;-71
2021/11/06 02:29:01;;;;;;;;;34.50;31.00;;;;;;;;5054348;28;45360;-70
2021/11/06 02:31:27;;;;;;;;;31.25;29.75;;;;;;;;5056192;28;45394;-72
2021/11/06 02:33:52;;;;;;;;;28.00;26.25;;;;;;;;5054397;28;45827;-71
2021/11/06 02:36:18;;;;;;;;;28.00;27.25;;;;;;;;5054666;28;45409;-72
2021/11/06 02:38:43;;;;;;;;;31.25;27.75;;;;;;;;5054989;28;45494;-72
2021/11/06 02:41:08;;;;;;;;;36.50;29.50;;;;;;;;5054576;28;45234;-72
2021/11/06 02:43:34;;;;;;;;;40.50;33.00;;;;;;;;5056379;28;45444;-72
2021/11/06 02:45:59;;;;;;;;;31.25;27.00;;;;;;;;5054454;28;45272;-72
2021/11/06 02:48:24;;;;;;;;;30.50;27.75;;;;;;;;5054675;28;45309;-72
2021/11/06 02:50:50;;;;;;;;;29.25;25.75;;;;;;;;5054388;28;45409;-72
2021/11/06 02:53:15;;;;;;;;;29.25;26.25;;;;;;;;5054426;28;45499;-72
2021/11/06 02:55:40;;;;;;;;;29.50;27.50;;;;;;;;5055779;28;45494;-70
2021/11/06 02:58:05;;;;;;;;;32.00;28.50;;;;;;;;5055332;28;45300;-72
2021/11/06 03:00:32;;;;;;;;;25.25;22.00;;;;;;;;5053521;28;45332;-70
2021/11/06 03:02:58;;;;;;;;;34.25;27.00;;;;;;;;5053962;28;45416;-72
2021/11/06 03:05:23;;;;;;;;;27.50;22.00;;;;;;;;5052061;28;45463;-72
2021/11/06 03:07:48;;;;;;;;;24.75;21.25;;;;;;;;5055434;28;45865;-71
2021/11/06 03:10:14;;;;;;;;;25.50;24.50;;;;;;;;5054119;28;45338;-70
2021/11/06 03:12:40;;;;;;;;;24.75;23.25;;;;;;;;5053906;28;46140;-72
2021/11/06 03:15:05;;;;;;;;;29.25;26.00;;;;;;;;5053483;28;45579;-71
2021/11/06 03:17:31;;;;;;;;;20.50;20.50;;;;;;;;5053747;28;45291;-72
2021/11/06 03:19:56;;;;;;;;;33.25;25.75;;;;;;;;5053917;28;45566;-71
2021/11/06 03:22:21;;;;;;;;;32.50;29.25;;;;;;;;5055595;28;47018;-71
2021/11/06 03:24:46;;;;;;;;;31.00;25.75;;;;;;;;5053422;28;45281;-71
2021/11/06 03:27:12;;;;;;;;;33.00;25.50;;;;;;;;5053770;28;45427;-71
2021/11/06 03:29:37;;;;;;;;;31.25;27.25;;;;;;;;5053436;28;45504;-71
2021/11/06 03:32:03;;;;;;;;;25.75;25.75;;;;;;;;5035575;28;46066;-71
2021/11/06 03:34:29;;;;;;;;;30.75;28.25;;;;;;;;5056010;28;45347;-71
2021/11/06 03:36:54;;;;;;;;;29.50;28.50;;;;;;;;5053835;28;45193;-70
2021/11/06 03:39:19;;;;;;;;;32.00;27.50;;;;;;;;5053822;28;45327;-71
2021/11/06 03:41:46;;;;;;;;;29.75;24.75;;;;;;;;5053480;28;45456;-72
2021/11/06 03:44:11;;;;;;;;;29.50;26.00;;;;;;;;5051588;28;45397;-71
2021/11/06 03:46:36;;;;;;;;;30.75;27.25;;;;;;;;5055532;28;45473;-71
2021/11/06 03:49:02;;;;;;;;;33.00;30.50;;;;;;;;5052600;28;45306;-71
2021/11/06 03:51:27;;;;;;;;;33.00;31.50;;;;;;;;5053006;28;45965;-72
2021/11/06 03:53:53;;;;;;;;;36.75;32.75;;;;;;;;5053150;28;45510;-71
2021/11/06 03:56:18;;;;;;;;;35.25;33.00;;;;;;;;5053577;28;45431;-72
2021/11/06 03:58:44;;;;;;;;;39.75;33.25;;;;;;;;5054136;28;45399;-71
2021/11/06 04:01:09;;;;;;;;;33.25;29.75;;;;;;;;5054635;28;46915;-71
2021/11/06 04:03:35;;;;;;;;;37.25;35.00;;;;;;;;5053044;28;45359;-71
2021/11/06 04:06:01;;;;;;;;;33.00;27.50;;;;;;;;5052664;28;45478;-70
2021/11/06 04:08:26;;;;;;;;;29.00;28.00;;;;;;;;5053287;28;45332;-72
2021/11/06 04:10:52;;;;;;;;;38.00;30.75;;;;;;;;5053052;28;45487;-71
2021/11/06 04:13:17;;;;;;;;;33.75;28.25;;;;;;;;5053988;28;45434;-71
2021/11/06 04:15:43;;;;;;;;;32.75;29.75;;;;;;;;5034699;28;45584;-71
2021/11/06 04:18:08;;;;;;;;;37.50;34.00;;;;;;;;5051569;28;45360;-70
2021/11/06 04:20:33;;;;;;;;;36.50;34.25;;;;;;;;5053207;28;45339;-72
2021/11/06 04:22:59;;;;;;;;;33.75;30.50;;;;;;;;5052192;28;47184;-70
2021/11/06 04:25:24;;;;;;;;;30.75;27.50;;;;;;;;5053858;28;45452;-71
2021/11/06 04:27:50;;;;;;;;;35.00;31.25;;;;;;;;5050907;28;45584;-71
2021/11/06 04:30:15;;;;;;;;;63.50;48.25;;;;;;;;5052260;28;46282;-71
2021/11/06 04:32:40;;;;;;;;;33.00;30.25;;;;;;;;5052870;28;45541;-70
2021/11/06 04:35:06;;;;;;;;;33.75;30.50;;;;;;;;5052933;28;45442;-71
2021/11/06 04:37:31;;;;;;;;;37.25;35.00;;;;;;;;5055215;28;45506;-70
2021/11/06 04:39:56;;;;;;;;;39.25;28.25;;;;;;;;5052445;28;45929;-71
2021/11/06 04:42:22;;;;;;;;;33.25;27.75;;;;;;;;5051966;28;45448;-71
2021/11/06 04:44:47;;;;;;;;;24.00;24.00;;;;;;;;5052789;28;45461;-70
2021/11/06 04:47:12;;;;;;;;;29.75;27.25;;;;;;;;5052853;28;45433;-70
2021/11/06 04:49:37;;;;;;;;;32.00;27.50;;;;;;;;5053537;28;46143;-72
2021/11/06 04:52:03;;;;;;;;;23.75;23.25;;;;;;;;5053164;28;45402;-72
2021/11/06 04:54:28;;;;;;;;;25.50;22.50;;;;;;;;5034573;28;45453;-72
2021/11/06 04:56:53;;;;;;;;;26.50;24.25;;;;;;;;5052108;28;45369;-70
2021/11/06 04:59:19;;;;;;;;;30.00;24.00;;;;;;;;5052689;28;46301;-72
2021/11/06 05:01:44;;;;;;;;;26.75;26.25;;;;;;;;5053183;28;48847;-72
2021/11/06 05:04:09;;;;;;;;;27.75;22.00;;;;;;;;5052257;28;45415;-70
2021/11/06 05:06:35;;;;;;;;;22.25;19.00;;;;;;;;5050954;28;45622;-72
2021/11/06 05:09:00;;;;;;;;;26.00;26.00;;;;;;;;5051608;28;46215;-71
2021/11/06 05:11:25;;;;;;;;;21.50;19.75;;;;;;;;5051669;28;45753;-71
2021/11/06 05:13:50;;;;;;;;;22.00;20.25;;;;;;;;5052134;28;45396;-72
2021/11/06 05:16:15;;;;;;;;;26.75;21.75;;;;;;;;5054318;28;45343;-71
2021/11/06 05:18:41;;;;;;;;;26.50;23.75;;;;;;;;5051535;28;45615;-70
2021/11/06 05:21:07;;;;;;;;;21.00;21.00;;;;;;;;5051957;28;45322;-71
2021/11/06 05:23:32;;;;;;;;;24.25;22.25;;;;;;;;5051327;28;45344;-72
2021/11/06 05:25:57;;;;;;;;;27.00;24.50;;;;;;;;5051449;28;45373;-71
2021/11/06 05:28:23;;;;;;;;;21.75;19.00;;;;;;;;5054321;28;46564;-71
2021/11/06 05:30:48;;;;;;;;;24.25;22.25;;;;;;;;5055396;28;45334;-71
2021/11/06 05:33:13;;;;;;;;;26.00;21.75;;;;;;;;5055128;28;45556;-73
2021/11/06 05:35:39;;;;;;;;;28.00;23.25;;;;;;;;5055548;28;45476;-72
2021/11/06 05:38:04;;;;;;;;;22.50;22.50;;;;;;;;5055521;28;45990;-70
2021/11/06 05:40:30;;;;;;;;;30.50;28.75;;;;;;;;5057018;28;45418;-73
2021/11/06 05:42:55;;;;;;;;;21.50;19.50;;;;;;;;5053403;28;45299;-71
2021/11/06 05:45:20;;;;;;;;;28.25;25.25;;;;;;;;5053790;28;45427;-70
2021/11/06 05:47:45;;;;;;;;;24.00;21.75;;;;;;;;5054647;28;46136;-71
2021/11/06 05:50:13;;;;;;;;;29.75;23.75;;;;;;;;5054685;28;45388;-71
2021/11/06 05:52:38;;;;;;;;;28.50;25.75;;;;;;;;5056398;28;45415;-72
2021/11/06 05:55:05;;;;;;;;;24.25;24.00;;;;;;;;5055016;28;45336;-72
2021/11/06 05:57:32;;;;;;;;;27.00;23.25;;;;;;;;5054374;28;45367;-70
2021/11/06 05:59:57;;;;;;;;;27.00;25.75;;;;;;;;5055381;28;45371;-71
2021/11/06 06:02:23;;;;;;;;;23.75;23.75;;;;;;;;5036591;28;45345;-71
2021/11/06 06:04:48;;;;;;;;;28.25;24.00;;;;;;;;5055290;28;45419;-71
2021/11/06 06:07:14;;;;;;;;;27.75;25.75;;;;;;;;5056388;28;46219;-72
2021/11/06 06:09:39;;;;;;;;;33.25;28.75;;;;;;;;5054089;28;45419;-71
2021/11/06 06:12:04;;;;;;;;;38.00;31.50;;;;;;;;5054376;28;45289;-72
2021/11/06 06:14:29;;;;;;;;;30.50;29.25;;;;;;;;5054314;28;45324;-71
2021/11/06 06:16:55;;;;;;;;;33.75;31.75;;;;;;;;5054677;28;46218;-71
2021/11/06 06:19:20;;;;;;;;;34.50;29.50;;;;;;;;5056656;28;45431;-71
2021/11/06 06:21:45;;;;;;;;;34.75;28.75;;;;;;;;5052807;28;45466;-71
2021/11/06 06:24:10;;;;;;;;;38.25;30.75;;;;;;;;5052400;28;45529;-71
2021/11/06 06:26:35;;;;;;;;;30.75;29.00;;;;;;;;5053718;28;45426;-72
2021/11/06 06:29:01;;;;;;;;;31.25;27.25;;;;;;;;5054196;28;45612;-72
2021/11/06 06:31:27;;;;;;;;;36.25;30.25;;;;;;;;5056448;28;45369;-71
2021/11/06 06:33:52;;;;;;;;;36.25;29.00;;;;;;;;5054045;28;45427;-70
2021/11/06 06:36:17;;;;;;;;;29.50;27.00;;;;;;;;5053807;28;46213;-72
2021/11/06 06:38:43;;;;;;;;;39.75;34.50;;;;;;;;5053819;28;45356;-72
2021/11/06 06:41:08;;;;;;;;;26.25;25.75;;;;;;;;5035092;28;45338;-72
2021/11/06 06:43:33;;;;;;;;;34.75;29.50;;;;;;;;5056330;28;45382;-77
2021/11/06 06:45:58;;;;;;;;;37.25;30.50;;;;;;;;5053626;28;45495;-74
2021/11/06 06:48:24;;;;;;;;;40.50;35.25;;;;;;;;5053630;28;45489;-73
2021/11/06 06:50:50;;;;;;;;;36.00;35.00;;;;;;;;5053687;28;45493;-74
2021/11/06 06:53:20;;;;;;;;;33.00;30.00;;;;;;;;5053385;28;45515;-73
2021/11/06 06:55:46;;;;;;;;;23.75;22.75;;;;;;;;5054649;28;47416;-73
2021/11/06 06:58:11;;;;;;;;;38.00;33.25;;;;;;;;5055279;28;45417;-72
2021/11/06 07:00:37;;;;;;;;;34.00;30.75;;;;;;;;5052289;28;45640;-72
2021/11/06 07:03:02;;;;;;;;;34.75;30.25;;;;;;;;5052473;28;45476;-72
2021/11/06 07:05:28;;;;;;;;;33.25;29.25;;;;;;;;5053051;28;46874;-72
2021/11/06 07:07:56;;;;;;;;;36.25;30.50;;;;;;;;5053153;28;45343;-72
2021/11/06 07:10:21;;;;;;;;;35.00;28.00;;;;;;;;5055978;28;45406;-72
2021/11/06 07:12:46;;;;;;;;;35.00;29.50;;;;;;;;5053224;28;45678;-72
2021/11/06 07:15:11;;;;;;;;;36.75;32.75;;;;;;;;5053076;28;45460;-72
2021/11/06 07:17:36;;;;;;;;;39.00;34.25;;;;;;;;5035184;28;45390;-71
2021/11/06 07:20:03;;;;;;;;;36.50;28.25;;;;;;;;5053349;28;45281;-72
2021/11/06 07:22:28;;;;;;;;;35.00;32.00;;;;;;;;5055391;28;45387;-73
2021/11/06 07:24:54;;;;;;;;;31.25;29.00;;;;;;;;5053071;28;47314;-71
2021/11/06 07:27:19;;;;;;;;;33.25;30.25;;;;;;;;5053045;28;45367;-71
2021/11/06 07:29:44;;;;;;;;;27.50;25.25;;;;;;;;5052676;28;45486;-72
2021/11/06 07:32:09;;;;;;;;;32.75;29.75;;;;;;;;5052649;28;45386;-71
2021/11/06 07:34:35;;;;;;;;;30.50;29.25;;;;;;;;5055351;28;46173;-70
2021/11/06 07:37:00;;;;;;;;;31.75;28.50;;;;;;;;5053155;28;45282;-72
2021/11/06 07:39:26;;;;;;;;;39.25;33.25;;;;;;;;5051367;28;45403;-72
2021/11/06 07:41:52;;;;;;;;;31.75;31.00;;;;;;;;5051122;28;45395;-72
2021/11/06 07:44:17;;;;;;;;;36.50;33.00;;;;;;;;5053447;28;45340;-73
2021/11/06 07:46:42;;;;;;;;;29.50;27.00;;;;;;;;5054689;28;45334;-72
2021/11/06 07:49:07;;;;;;;;;34.50;32.25;;;;;;;;5053282;28;45478;-72
2021/11/06 07:51:33;;;;;;;;;49.00;36.25;;;;;;;;5051786;28;45534;-73
2021/11/06 07:53:58;;;;;;;;;32.00;30.25;;;;;;;;5034382;28;47071;-74
2021/11/06 07:56:24;;;;;;;;;33.75;31.50;;;;;;;;5053200;28;45499;-72
2021/11/06 07:58:49;;;;;;;;;35.00;32.25;;;;;;;;5053149;28;45347;-72
2021/11/06 08:01:15;;;;;;;;;33.25;29.00;;;;;;;;5054281;28;45359;-73
2021/11/06 08:03:40;;;;;;;;;42.00;33.75;;;;;;;;5051991;28;45981;-72
2021/11/06 08:06:05;;;;;;;;;34.75;33.50;;;;;;;;5051685;28;45537;-73
2021/11/06 08:08:31;;;;;;;;;31.75;28.75;;;;;;;;5052202;28;45307;-73
2021/11/06 08:10:57;;;;;;;;;37.50;33.50;;;;;;;;5051821;28;45655;-75
2021/11/06 08:13:22;;;;;;;;;33.25;32.25;;;;;;;;5053774;28;46515;-72
2021/11/06 08:15:47;;;;;;;;;30.75;28.75;;;;;;;;5052041;28;45331;-73
2021/11/06 08:18:12;;;;;;;;;32.00;30.50;;;;;;;;5050349;28;45520;-73
2021/11/06 08:20:38;;;;;;;;;36.00;33.00;;;;;;;;5050475;28;45582;-73
2021/11/06 08:23:03;;;;;;;;;35.00;31.00;;;;;;;;5052221;28;46451;-72
2021/11/06 08:25:28;;;;;;;;;36.25;32.50;;;;;;;;5053878;28;45412;-73
2021/11/06 08:27:54;;;;;;;;;39.00;34.50;;;;;;;;5052156;28;45555;-72
2021/11/06 08:30:20;;;;;;;;;36.00;29.25;;;;;;;;5051907;28;45605;-73
2021/11/06 08:32:46;;;;;;;;;32.00;29.50;;;;;;;;5051377;28;45399;-72
2021/11/06 08:35:12;;;;;;;;;31.75;31.00;;;;;;;;5051401;28;45494;-69
2021/11/06 08:37:37;;;;;;;;;33.50;32.25;;;;;;;;5053132;28;45478;-73
2021/11/06 08:40:04;;;;;;;;;26.50;26.50;;;;;;;;5051846;28;45451;-72
2021/11/06 08:42:30;;;;;;;;;34.75;28.50;;;;;;;;5051114;28;46130;-72
2021/11/06 08:44:55;;;;;;;;;28.25;27.75;;;;;;;;5051042;28;45408;-72
2021/11/06 08:47:20;;;;;;;;;32.50;30.25;;;;;;;;5050926;28;45363;-73
2021/11/06 08:49:46;;;;;;;;;30.75;30.25;;;;;;;;5051976;28;45435;-73
2021/11/06 08:52:11;;;;;;;;;26.00;25.75;;;;;;;;5052805;28;45394;-73
2021/11/06 08:54:37;;;;;;;;;21.00;21.00;;;;;;;;5050944;28;45516;-74
2021/11/06 08:57:04;;;;;;;;;26.25;24.75;;;;;;;;5049764;28;45548;-73
2021/11/06 08:59:29;;;;;;;;;31.25;29.00;;;;;;;;5050007;28;45249;-73
2021/11/06 09:01:55;;;;;;;;;29.50;27.50;;;;;;;;5050916;28;47249;-72
2021/11/06 09:04:20;;;;;;;;;27.50;26.75;;;;;;;;5055630;28;46187;-73
2021/11/06 09:06:46;;;;;;;;;17.50;17.00;;;;;;;;5049444;28;45350;-74
2021/11/06 09:09:14;;;;;;;;;18.50;17.25;;;;;;;;5052045;28;45387;-73
2021/11/06 09:11:39;;;;;;;;;21.25;17.50;;;;;;;;5054303;28;47083;-73
2021/11/06 09:14:05;;;;;;;;;18.75;18.50;;;;;;;;5054405;28;45448;-76
2021/11/06 09:16:30;;;;;;;;;15.50;15.00;;;;;;;;5056901;28;45414;-72
2021/11/06 09:18:56;;;;;;;;;20.25;16.25;;;;;;;;5036317;28;45391;-73
2021/11/06 09:21:24;;;;;;;;;15.75;15.75;;;;;;;;5054081;28;45710;-73
2021/11/06 09:23:50;;;;;;;;;13.50;13.25;;;;;;;;5054372;28;45287;-73
2021/11/06 09:26:16;;;;;;;;;15.00;14.00;;;;;;;;5054560;28;45447;-72
2021/11/06 09:28:42;;;;;;;;;18.00;15.50;;;;;;;;5055930;28;45338;-73
2021/11/06 09:31:08;;;;;;;;;21.25;16.25;;;;;;;;5054471;28;46962;-72
2021/11/06 09:33:33;;;;;;;;;20.75;19.50;;;;;;;;5053953;28;45798;-73
2021/11/06 09:35:59;;;;;;;;;17.50;15.75;;;;;;;;5053105;28;45438;-73
2021/11/06 09:38:24;;;;;;;;;17.00;14.00;;;;;;;;5052493;28;45406;-74
2021/11/06 09:40:49;;;;;;;;;8.50;8.50;;;;;;;;5054460;28;47322;-72
2021/11/06 09:43:17;;;;;;;;;19.25;18.50;;;;;;;;5056080;28;45399;-74
2021/11/06 09:45:46;;;;;;;;;15.50;14.75;;;;;;;;5053750;28;45340;-74
2021/11/06 09:48:11;;;;;;;;;15.75;15.75;;;;;;;;5053756;28;45493;-74
2021/11/06 09:50:37;;;;;;;;;18.75;17.00;;;;;;;;5031758;28;45503;-74
2021/11/06 09:53:02;;;;;;;;;16.00;16.00;;;;;;;;5033572;28;45362;-75
2021/11/06 09:55:27;;;;;;;;;19.25;17.75;;;;;;;;5036085;28;45340;-71
2021/11/06 09:57:53;;;;;;;;;16.25;15.00;;;;;;;;5033761;28;45594;-73
2021/11/06 10:00:20;;;;;;;;;14.50;12.75;;;;;;;;5032739;28;45924;-74
2021/11/06 10:02:45;;;;;;;;;12.50;12.25;;;;;;;;5032945;28;45294;-70
2021/11/06 10:05:12;;;;;;;;;19.75;19.00;;;;;;;;5032043;28;45967;-70
2021/11/06 10:07:38;;;;;;;;;17.25;16.50;;;;;;;;5035275;28;45437;-70
2021/11/06 10:10:11;;;;;;;;;21.00;17.25;;;;;;;;5032394;28;45680;-70
2021/11/06 10:12:44;;;;;;;;;18.75;18.50;;;;;;;;5033580;28;45841;-72
2021/11/06 10:15:10;;;;;;;;;19.25;16.50;;;;;;;;5030323;28;45295;-70
2021/11/06 10:17:35;;;;;;;;;18.50;17.25;;;;;;;;5031764;28;45381;-70
2021/11/06 10:20:19;;;;;;;;;20.75;20.75;;;;;;;;5033008;28;46164;-73
2021/11/06 10:22:44;;;;;;;;;22.25;18.75;;;;;;;;5031455;28;45297;-71
2021/11/06 10:25:10;;;;;;;;;17.50;15.25;;;;;;;;5034233;28;46022;-70
2021/11/06 10:27:35;;;;;;;;;18.50;18.50;;;;;;;;5032888;28;45387;-72
2021/11/06 10:30:16;;;;;;;;;13.75;13.00;;;;;;;;5033012;28;45298;-71
2021/11/06 10:32:54;;;;;;;;;19.75;19.25;;;;;;;;5032687;28;45490;-73
2021/11/06 10:35:21;;;;;;;;;19.50;17.50;;;;;;;;5032613;28;45345;-72
2021/11/06 10:37:47;;;;;;;;;12.50;11.50;;;;;;;;5033172;28;45364;-72
2021/11/06 10:40:14;;;;;;;;;14.00;14.00;;;;;;;;5033884;28;45449;-71
2021/11/06 10:42:49;;;;;;;;;10.00;9.00;;;;;;;;5032451;28;45412;-71
2021/11/06 10:45:16;;;;;;;;;13.25;11.50;;;;;;;;5032393;28;45239;-71
2021/11/06 10:47:51;;;;;;;;;15.25;12.00;;;;;;;;5032754;28;45321;-71
2021/11/06 10:50:35;;;;;;;;;8.25;8.25;;;;;;;;5047398;28;45531;-73
2021/11/06 10:53:00;;;;;;;;;11.25;10.75;;;;;;;;5052127;28;45396;-72
2021/11/06 10:55:31;;;;;;;;;10.00;9.00;;;;;;;;5054344;28;45317;-72
2021/11/06 10:57:56;;;;;;;;;12.50;9.50;;;;;;;;5051368;28;47952;-71
2021/11/06 11:00:22;;;;;;;;;10.00;7.00;;;;;;;;5052685;28;47003;-73
2021/11/06 11:02:47;;;;;;;;;10.00;9.00;;;;;;;;5052538;28;45567;-73
2021/11/06 11:05:33;;;;;;;;;9.25;8.25;;;;;;;;5053284;28;45525;-72
2021/11/06 11:08:01;;;;;;;;;9.25;9.25;;;;;;;;5052855;28;45293;-72
2021/11/06 11:10:26;;;;;;;;;9.00;9.00;;;;;;;;5054237;28;46757;-72
2021/11/06 11:13:11;;;;;;;;;10.00;10.00;;;;;;;;5051851;28;45537;-72
2021/11/06 11:15:37;;;;;;;;;11.50;10.00;;;;;;;;5052604;28;45276;-72
2021/11/06 11:18:02;;;;;;;;;7.50;7.50;;;;;;;;5052025;28;45391;-72
2021/11/06 11:20:30;;;;;;;;;6.25;5.00;;;;;;;;5033836;28;47452;-72
2021/11/06 11:23:22;;;;;;;;;9.00;8.25;;;;;;;;5052200;28;45368;-71
2021/11/06 11:25:48;;;;;;;;;8.25;7.25;;;;;;;;5046564;28;45340;-72
2021/11/06 11:28:13;;;;;;;;;7.00;7.00;;;;;;;;5034812;28;45411;-72
2021/11/06 11:30:39;;;;;;;;;7.00;6.50;;;;;;;;5051866;28;46001;-71
2021/11/06 11:33:04;;;;;;;;;8.00;8.00;;;;;;;;5050463;28;45496;-73
2021/11/06 11:35:30;;;;;;;;;11.50;9.00;;;;;;;;5050399;28;45239;-74
2021/11/06 11:37:59;;;;;;;;;10.00;7.50;;;;;;;;5052992;28;45355;-74
2021/11/06 11:40:27;;;;;;;;;6.00;6.00;;;;;;;;5054965;28;46212;-71
2021/11/06 11:43:02;;;;;;;;;7.67;7.00;;;;;;;;5052023;28;45280;-73
2021/11/06 11:45:45;;;;;;;;;9.33;7.67;;;;;;;;5052935;28;45426;-73
2021/11/06 11:48:12;;;;;;;;;8.50;8.50;;;;;;;;5052161;28;45471;-72
2021/11/06 11:50:40;;;;;;;;;6.50;6.50;;;;;;;;5052186;28;45478;-71
2021/11/06 11:53:06;;;;;;;;;8.67;7.00;;;;;;;;5036337;28;45308;-72
2021/11/06 11:55:55;;;;;;;;;6.50;6.50;;;;;;;;5054611;28;45446;-72
2021/11/06 11:58:25;;;;;;;;;10.50;8.25;;;;;;;;5052764;28;45423;-71
2021/11/06 12:00:53;;;;;;;;;7.00;7.00;;;;;;;;5051694;28;47179;-72
2021/11/06 12:03:31;;;;;;;;;9.25;8.25;;;;;;;;5051660;28;45321;-72
2021/11/06 12:05:56;;;;;;;;;6.00;6.00;;;;;;;;5052219;28;45339;-71
2021/11/06 12:08:21;;;;;;;;;8.50;8.50;;;;;;;;5051250;28;45272;-72
2021/11/06 12:10:48;;;;;;;;;7.75;6.75;;;;;;;;5052392;28;45659;-75
2021/11/06 12:13:30;;;;;;;;;9.25;7.00;;;;;;;;5033179;28;45447;-73
2021/11/06 12:16:06;;;;;;;;;8.50;7.25;;;;;;;;5032082;28;45284;-71
2021/11/06 12:18:34;;;;;;;;;17.75;17.25;;;;;;;;5050909;28;45728;-72
2021/11/06 12:21:21;;;;;;;;;11.50;11.00;;;;;;;;5050501;28;46065;-71
2021/11/06 12:23:47;;;;;;;;;8.00;7.75;;;;;;;;5051137;28;45288;-70
2021/11/06 12:26:13;;;;;;;;;2.00;2.00;;;;;;;;5050734;28;45620;-71
2021/11/06 12:28:39;;;;;;;;;6.67;6.67;;;;;;;;5052352;28;45457;-70
2021/11/06 12:31:22;;;;;;;;;9.00;8.25;;;;;;;;5050026;28;45961;-71
2021/11/06 12:33:48;;;;;;;;;7.75;7.50;;;;;;;;5051579;28;45367;-72
2021/11/06 12:36:17;;;;;;;;;7.25;6.75;;;;;;;;5051360;28;45479;-71
2021/11/06 12:38:42;;;;;;;;;8.00;8.00;;;;;;;;5052169;28;45418;-71
2021/11/06 12:41:08;;;;;;;;;6.75;6.75;;;;;;;;5020095;28;47316;-71
2021/11/06 12:43:33;;;;;;;;;5.25;5.25;;;;;;;;5056924;28;45362;-72
2021/11/06 12:46:16;;;;;;;;;8.75;7.75;;;;;;;;5054731;28;45280;-78
2021/11/06 12:48:42;;;;;;;;;9.75;7.75;;;;;;;;5051610;28;45553;-72
2021/11/06 12:51:09;;;;;;;;;7.00;6.00;;;;;;;;5053134;28;46251;-74
2021/11/06 12:53:39;;;;;;;;;13.50;9.00;;;;;;;;5052329;28;45368;-73
2021/11/06 12:56:06;;;;;;;;;5.00;4.00;;;;;;;;5035763;28;45343;-75
2021/11/06 12:58:32;;;;;;;;;6.00;6.00;;;;;;;;5056391;28;45383;-71
2021/11/06 13:01:12;;;;;;;;;5.67;5.67;;;;;;;;5053633;28;45513;-73
2021/11/06 13:03:38;;;;;;;;;8.00;6.00;;;;;;;;5053569;28;45438;-72
2021/11/06 13:06:15;;;;;;;;;6.00;6.00;;;;;;;;5054511;28;45440;-72
2021/11/06 13:08:40;;;;;;;;;7.67;7.00;;;;;;;;5053575;28;45315;-72
2021/11/06 13:11:06;;;;;;;;;8.00;8.00;;;;;;;;5053931;28;45982;-72
2021/11/06 13:13:31;;;;;;;;;7.00;7.00;;;;;;;;5055946;28;45445;-73
2021/11/06 13:15:58;;;;;;;;;5.33;5.33;;;;;;;;5054079;28;45355;-71
2021/11/06 13:18:23;;;;;;;;;10.00;7.33;;;;;;;;5053713;28;45461;-71
2021/11/06 13:20:52;;;;;;;;;8.33;6.67;;;;;;;;5051687;28;46371;-71
2021/11/06 13:23:17;;;;;;;;;7.00;5.33;;;;;;;;5052864;28;45401;-72
2021/11/06 13:25:44;;;;;;;;;5.67;5.67;;;;;;;;5054406;28;45370;-73
2021/11/06 13:28:12;;;;;;;;;7.00;7.00;;;;;;;;5054286;28;45337;-71
2021/11/06 13:30:39;;;;;;;;;6.67;6.67;;;;;;;;5051874;28;45574;-71
2021/11/06 13:33:24;;;;;;;;;4.00;4.00;;;;;;;;5052793;28;45399;-69
2021/11/06 13:35:52;;;;;;;;;5.00;5.00;;;;;;;;5053057;28;45822;-69
2021/11/06 13:38:19;;;;;;;;;7.00;6.00;;;;;;;;5052858;28;45396;-70
2021/11/06 13:40:45;;;;;;;;;4.00;4.00;;;;;;;;5055143;28;45329;-72
2021/11/06 13:43:11;;;;;;;;;7.33;6.33;;;;;;;;5036441;28;45391;-71
2021/11/06 13:45:36;;;;;;;;;7.00;7.00;;;;;;;;5051595;28;45561;-72
2021/11/06 13:48:01;;;;;;;;;7.00;7.00;;;;;;;;5050228;28;45515;-72
2021/11/06 13:50:26;;;;;;;;;7.67;6.00;;;;;;;;5049100;28;45598;-72
2021/11/06 13:52:54;;;;;;;;;5.67;3.00;;;;;;;;5045139;28;46077;-73
2021/11/06 13:55:20;;;;;;;;;4.33;4.33;;;;;;;;5047466;28;45915;-73
2021/11/06 13:57:49;;;;;;;;;3.33;3.33;;;;;;;;5047224;28;45601;-71
2021/11/06 14:00:17;;;;;;;;;4.00;4.00;;;;;;;;5051099;28;46481;-73
2021/11/06 14:02:45;;;;;;;;;4.00;4.00;;;;;;;;5050195;28;45435;-74
2021/11/06 14:05:11;;;;;;;;;4.00;4.00;;;;;;;;5049101;28;45766;-74
2021/11/06 14:07:43;;;;;;;;;6.00;5.00;;;;;;;;5050069;28;45450;-75
2021/11/06 14:10:10;;;;;;;;;7.00;7.00;;;;;;;;5048921;28;45602;-73
2021/11/06 14:12:49;;;;;;;;;5.00;4.00;;;;;;;;5048657;28;45547;-72
2021/11/06 14:15:36;;;;;;;;;4.67;4.00;;;;;;;;5052357;28;45432;-73
2021/11/06 14:18:08;;;;;;;;;3.00;3.00;;;;;;;;5052504;28;45353;-72
2021/11/06 14:20:33;;;;;;;;;5.00;5.00;;;;;;;;5052356;28;45982;-74